Time;durP1;ratioP1;P1;durP2;ratioP2;P2;SDS_P1;SDS_P2;PMS_P1;PMS_P2;Temp;Humidity;BMP_temperature;BMP_pressure;BME280_temperature;BME280_humidity;BME280_pressure;Samples;Min_cycle;Max_cycle;Signal;HPM_P1;HPM_P2
2021/03/09 00:00:11;;;;;;;20.02;8.70;;;4.60;88.00;;;;;;5022075;28;20102;-95
2021/03/09 00:02:49;;;;;;;26.38;10.32;;;4.60;88.20;;;;;;5035911;28;20077;-95
2021/03/09 00:05:40;;;;;;;22.48;11.25;;;4.50;88.40;;;;;;5049542;28;20034;-96
2021/03/09 00:08:07;;;;;;;22.13;10.95;;;4.50;88.70;;;;;;5056737;28;20064;-96
2021/03/09 00:10:33;;;;;;;22.52;10.82;;;4.50;89.00;;;;;;5030148;28;20097;-95
2021/03/09 00:13:05;;;;;;;24.13;11.23;;;4.50;89.10;;;;;;5045863;28;20018;-96
2021/03/09 00:15:37;;;;;;;26.08;11.73;;;4.60;89.30;;;;;;5038328;28;20032;-95
2021/03/09 00:18:09;;;;;;;23.50;11.65;;;4.50;89.40;;;;;;5050930;28;20022;-95
2021/03/09 00:20:38;;;;;;;26.63;13.10;;;4.60;89.90;;;;;;5038915;28;20032;-94
2021/03/09 00:23:19;;;;;;;32.03;14.45;;;4.60;89.90;;;;;;5035980;28;20024;-95
2021/03/09 00:26:16;;;;;;;30.98;14.57;;;4.50;89.80;;;;;;5050182;28;20096;-96
2021/03/09 00:28:43;;;;;;;29.92;14.57;;;4.50;90.10;;;;;;5050281;28;20022;-96
2021/03/09 00:31:37;;;;;;;28.27;14.40;;;4.50;90.10;;;;;;5030745;28;20084;-95
2021/03/09 00:34:07;;;;;;;29.58;14.15;;;4.60;90.20;;;;;;5051367;28;20033;-95
2021/03/09 00:36:35;;;;;;;26.83;14.82;;;4.60;90.30;;;;;;5029968;28;20037;-95
2021/03/09 00:39:05;;;;;;;30.70;15.13;;;4.60;90.30;;;;;;5053245;28;20021;-96
2021/03/09 00:41:31;;;;;;;34.95;16.27;;;4.60;90.30;;;;;;5036783;28;20069;-93
2021/03/09 00:44:12;;;;;;;32.17;16.10;;;4.60;90.40;;;;;;5034933;28;20037;-95
2021/03/09 00:46:39;;;;;;;32.50;16.27;;;4.60;90.50;;;;;;5046233;28;20053;-96
2021/03/09 00:49:41;;;;;;;33.47;16.23;;;4.60;90.50;;;;;;5033963;28;20038;-94
2021/03/09 00:52:16;;;;;;;35.75;17.27;;;4.60;90.50;;;;;;5030384;28;20109;-95
2021/03/09 00:54:51;;;;;;;40.40;19.38;;;4.60;90.60;;;;;;5047797;28;20056;-95
2021/03/09 00:57:20;;;;;;;38.05;17.70;;;4.60;90.60;;;;;;5026622;28;20022;-94
2021/03/09 00:59:47;;;;;;;39.00;18.25;;;4.60;90.90;;;;;;5029951;28;20032;-95
2021/03/09 01:02:16;;;;;;;38.63;18.15;;;4.60;90.60;;;;;;5043433;28;20163;-95
2021/03/09 01:04:41;;;;;;;36.53;17.27;;;4.60;90.60;;;;;;5037926;28;20033;-94
2021/03/09 01:07:13;;;;;;;34.25;18.00;;;4.60;90.70;;;;;;5028479;28;20022;-95
2021/03/09 01:09:39;;;;;;;37.70;19.13;;;4.60;90.70;;;;;;5042054;28;20555;-94
2021/03/09 01:12:05;;;;;;;40.05;19.67;;;4.60;90.80;;;;;;5043634;28;20037;-95
2021/03/09 01:14:31;;;;;;;37.15;18.58;;;4.60;90.90;;;;;;5038342;28;20034;-96
2021/03/09 01:17:05;;;;;;;42.97;20.50;;;4.60;91.00;;;;;;5040611;28;20041;-94
2021/03/09 01:19:52;;;;;;;40.28;18.10;;;4.60;91.00;;;;;;5037506;28;20040;-95
2021/03/09 01:22:18;;;;;;;41.00;19.70;;;4.60;91.10;;;;;;5052262;28;20021;-96
2021/03/09 01:24:45;;;;;;;38.60;17.88;;;4.50;91.10;;;;;;5041654;28;20061;-96
2021/03/09 01:27:12;;;;;;;36.88;18.13;;;4.60;91.20;;;;;;5037675;28;20125;-94
2021/03/09 01:29:39;;;;;;;38.75;18.40;;;4.50;91.20;;;;;;5043376;28;20093;-96
2021/03/09 01:32:08;;;;;;;41.85;18.95;;;4.60;91.30;;;;;;5034689;28;20041;-95
2021/03/09 01:35:01;;;;;;;40.63;19.35;;;4.50;91.40;;;;;;5039146;28;20025;-95
2021/03/09 01:37:27;;;;;;;41.38;19.02;;;4.50;91.40;;;;;;5059625;28;20017;-95
2021/03/09 01:39:53;;;;;;;42.50;19.73;;;4.50;91.50;;;;;;5043276;28;20033;-95
2021/03/09 01:42:18;;;;;;;41.50;19.90;;;4.50;91.50;;;;;;5047750;28;20052;-96
2021/03/09 01:44:44;;;;;;;40.08;20.83;;;4.50;91.60;;;;;;5050267;28;20033;-95
2021/03/09 01:47:11;;;;;;;44.22;20.50;;;4.50;91.60;;;;;;5047487;28;20025;-95
2021/03/09 01:49:40;;;;;;;40.88;20.27;;;4.50;91.70;;;;;;5070443;28;20040;-96
2021/03/09 01:52:09;;;;;;;48.80;21.75;;;4.50;91.80;;;;;;5043136;28;20033;-93
2021/03/09 01:54:38;;;;;;;51.45;23.05;;;4.50;91.80;;;;;;5037768;28;20055;-95
2021/03/09 01:57:05;;;;;;;51.72;23.45;;;4.50;91.80;;;;;;5046221;28;20025;-95
2021/03/09 01:59:31;;;;;;;46.15;22.67;;;4.50;91.80;;;;;;5050477;28;20032;-95
2021/03/09 02:01:57;;;;;;;44.55;22.05;;;4.60;91.80;;;;;;5055072;28;20101;-93
2021/03/09 02:04:23;;;;;;;43.67;20.08;;;4.60;91.80;;;;;;5035842;28;20038;-95
2021/03/09 02:06:52;;;;;;;45.38;22.88;;;4.60;91.80;;;;;;5049766;28;20035;-95
2021/03/09 02:09:22;;;;;;;51.20;23.58;;;4.60;91.80;;;;;;5038985;28;20048;-95
2021/03/09 02:12:32;;;;;;;53.67;25.27;;;4.60;91.90;;;;;;5033105;28;20028;-95
2021/03/09 02:15:16;;;;;;;53.50;26.52;;;4.60;91.90;;;;;;4949016;29;20039;-96
2021/03/09 02:17:42;;;;;;;55.75;24.52;;;4.60;92.00;;;;;;4936821;29;20024;-96
2021/03/09 02:20:34;;;;;;;50.72;24.35;;;4.60;92.10;;;;;;5016234;28;20040;-96
2021/03/09 02:23:44;;;;;;;47.63;23.50;;;4.60;92.00;;;;;;5044695;28;20033;-95
2021/03/09 02:26:36;;;;;;;48.00;23.55;;;4.60;92.00;;;;;;5046937;28;20052;-96
2021/03/09 02:29:14;;;;;;;55.58;25.08;;;4.60;92.10;;;;;;5057454;28;20048;-95
2021/03/09 02:31:42;;;;;;;51.08;25.05;;;4.60;92.10;;;;;;5049580;28;20072;-96
2021/03/09 02:34:12;;;;;;;53.17;25.15;;;4.60;92.20;;;;;;5041252;28;20033;-95
2021/03/09 02:36:40;;;;;;;55.70;26.13;;;4.60;92.20;;;;;;5037623;28;20159;-96
2021/03/09 02:39:11;;;;;;;52.00;26.60;;;4.60;92.20;;;;;;5061312;28;20029;-94
2021/03/09 02:41:44;;;;;;;53.78;26.83;;;4.60;92.30;;;;;;5042876;28;20035;-94
2021/03/09 02:44:10;;;;;;;;;;;4.60;92.30;;;;;;5045852;28;20037;-96
2021/03/09 02:46:38;;;;;;;59.50;27.48;;;4.60;92.50;;;;;;5063762;28;19979;-95
2021/03/09 02:49:07;;;;;;;67.38;30.35;;;4.60;92.60;;;;;;5048403;28;20028;-94
2021/03/09 02:51:36;;;;;;;63.40;29.45;;;4.60;92.60;;;;;;5064439;28;20027;-96
2021/03/09 02:54:03;;;;;;;56.35;28.25;;;4.50;92.60;;;;;;5055604;28;20012;-95
2021/03/09 02:56:29;;;;;;;59.00;30.50;;;4.60;92.60;;;;;;5053392;28;20032;-95
2021/03/09 02:58:56;;;;;;;66.05;32.33;;;4.60;92.70;;;;;;5036799;28;20025;-96
2021/03/09 03:01:25;;;;;;;66.32;30.10;;;4.50;92.70;;;;;;5039153;28;20028;-96
2021/03/09 03:03:53;;;;;;;71.03;33.30;;;4.50;92.80;;;;;;5039550;28;20637;-96
2021/03/09 03:06:20;;;;;;;71.03;34.17;;;4.50;92.90;;;;;;5042543;28;20051;-96
2021/03/09 03:08:47;;;;;;;71.72;34.13;;;4.50;92.90;;;;;;5041649;28;20017;-95
2021/03/09 03:11:14;;;;;;;73.00;34.03;;;4.60;93.00;;;;;;5070400;28;20025;-96
2021/03/09 03:13:41;;;;;;;72.20;34.47;;;4.50;93.00;;;;;;5047268;28;20040;-94
2021/03/09 03:16:08;;;;;;;69.03;34.38;;;4.50;93.00;;;;;;5056334;28;20080;-94
2021/03/09 03:18:41;;;;;;;73.22;34.83;;;4.50;93.00;;;;;;5050030;28;20052;-96
2021/03/09 03:21:13;;;;;;;81.22;37.33;;;4.50;93.10;;;;;;5034830;28;20036;-96
2021/03/09 03:23:41;;;;;;;74.00;37.30;;;4.50;93.20;;;;;;5062444;28;20033;-96
2021/03/09 03:26:09;;;;;;;81.88;37.88;;;4.50;93.20;;;;;;5025393;28;20034;-94
2021/03/09 03:28:39;;;;;;;82.47;38.05;;;4.50;93.40;;;;;;5054647;28;20032;-95
2021/03/09 03:31:05;;;;;;;87.70;41.55;;;4.50;93.40;;;;;;5063496;28;20045;-96
2021/03/09 03:33:32;;;;;;;81.75;37.90;;;4.50;93.40;;;;;;5064180;28;20040;-96
2021/03/09 03:36:05;;;;;;;79.53;38.22;;;4.50;93.40;;;;;;5029228;28;20025;-96
2021/03/09 03:38:38;;;;;;;78.55;40.17;;;4.50;93.40;;;;;;5030276;28;20034;-96
2021/03/09 03:41:06;;;;;;;87.57;41.00;;;4.50;93.50;;;;;;5016334;28;20061;-96
2021/03/09 03:43:32;;;;;;;84.97;40.60;;;4.50;93.50;;;;;;5032206;28;20026;-96
2021/03/09 03:45:58;;;;;;;85.35;40.13;;;4.50;93.50;;;;;;5020881;28;20041;-96
2021/03/09 03:48:25;;;;;;;83.10;38.78;;;4.50;93.50;;;;;;5028170;28;20022;-96
2021/03/09 03:50:53;;;;;;;86.20;40.30;;;4.50;93.60;;;;;;5021768;28;20089;-96
2021/03/09 03:53:24;;;;;;;77.95;39.53;;;4.50;93.60;;;;;;5029517;28;20028;-96
2021/03/09 03:56:28;;;;;;;87.55;41.50;;;4.50;93.70;;;;;;5041925;28;20022;-96
2021/03/09 03:59:29;;;;;;;78.72;39.97;;;4.50;93.70;;;;;;5046013;28;20033;-96
2021/03/09 04:01:55;;;;;;;87.68;41.25;;;4.50;93.70;;;;;;5035254;28;20091;-94
2021/03/09 04:04:24;;;;;;;84.72;40.90;;;4.50;93.80;;;;;;5046006;28;20034;-94
2021/03/09 04:06:53;;;;;;;76.88;38.92;;;4.50;93.80;;;;;;5034172;28;20022;-94
2021/03/09 04:09:24;;;;;;;84.20;41.28;;;4.50;93.80;;;;;;5046653;28;20032;-95
2021/03/09 04:11:53;;;;;;;82.32;38.50;;;4.50;93.90;;;;;;5046145;28;20029;-96
2021/03/09 04:14:20;;;;;;;80.05;39.63;;;4.50;93.90;;;;;;5029873;28;20022;-96
2021/03/09 04:16:53;;;;;;;87.47;40.05;;;4.50;94.00;;;;;;5047306;28;20022;-92
2021/03/09 04:19:22;;;;;;;81.05;39.45;;;4.50;94.00;;;;;;5021473;28;20022;-95
2021/03/09 04:21:57;;;;;;;80.32;37.75;;;4.50;94.00;;;;;;5007441;28;20056;-96
2021/03/09 04:24:34;;;;;;;79.50;35.90;;;4.50;94.00;;;;;;5040521;28;20048;-94
2021/03/09 04:27:02;;;;;;;80.00;37.22;;;4.50;94.10;;;;;;5027438;28;20033;-96
2021/03/09 04:29:32;;;;;;;77.25;36.45;;;4.50;94.10;;;;;;5028612;28;20359;-95
2021/03/09 04:32:05;;;;;;;73.03;35.55;;;4.50;94.10;;;;;;5009506;28;20045;-96
2021/03/09 04:34:33;;;;;;;75.50;37.10;;;4.50;94.10;;;;;;5014720;28;20058;-95
2021/03/09 04:37:01;;;;;;;72.90;34.67;;;4.50;94.20;;;;;;5024678;28;20021;-96
2021/03/09 04:39:52;;;;;;;73.70;34.63;;;4.50;94.20;;;;;;5049494;28;20037;-96
2021/03/09 04:42:25;;;;;;;69.53;33.75;;;4.50;94.20;;;;;;5016810;28;20042;-96
2021/03/09 04:44:53;;;;;;;72.80;34.15;;;4.50;94.20;;;;;;5032021;28;20068;-95
2021/03/09 04:47:31;;;;;;;71.28;32.17;;;4.50;94.20;;;;;;5017428;28;20094;-96
2021/03/09 04:50:02;;;;;;;73.32;34.03;;;4.60;94.20;;;;;;5027777;28;20037;-96
2021/03/09 04:53:01;;;;;;;73.30;36.53;;;4.50;94.20;;;;;;5000747;28;20034;-95
2021/03/09 04:55:35;;;;;;;71.63;32.85;;;4.50;94.30;;;;;;5016589;28;20078;-96
2021/03/09 04:58:07;;;;;;;70.95;34.78;;;4.50;94.30;;;;;;5022269;28;20041;-95
2021/03/09 05:00:42;;;;;;;73.93;35.80;;;4.50;94.30;;;;;;5035548;28;20026;-96
2021/03/09 05:03:36;;;;;;;80.95;37.15;;;4.50;94.30;;;;;;5033970;28;20071;-95
2021/03/09 05:06:06;;;;;;;78.88;35.67;;;4.60;94.30;;;;;;5052116;28;20057;-96
2021/03/09 05:08:37;;;;;;;78.63;36.60;;;4.50;94.30;;;;;;5042471;28;20029;-94
2021/03/09 05:11:03;;;;;;;76.53;36.75;;;4.60;94.40;;;;;;5045200;28;20052;-96
2021/03/09 05:13:31;;;;;;;77.15;37.63;;;4.60;94.40;;;;;;5036303;28;20030;-95
2021/03/09 05:16:00;;;;;;;80.82;37.83;;;4.60;94.40;;;;;;5023334;28;20018;-96
2021/03/09 05:18:26;;;;;;;84.10;38.92;;;4.60;94.40;;;;;;5039443;28;20006;-96
2021/03/09 05:20:51;;;;;;;77.35;36.88;;;4.60;94.50;;;;;;5038437;28;20021;-96
2021/03/09 05:23:20;;;;;;;79.38;35.38;;;4.50;94.40;;;;;;5040595;28;20014;-93
2021/03/09 05:25:46;;;;;;;82.47;37.17;;;4.60;94.50;;;;;;5053437;28;20041;-95
2021/03/09 05:28:11;;;;;;;76.85;38.35;;;4.60;94.50;;;;;;5044002;28;20009;-96
2021/03/09 05:30:37;;;;;;;77.53;36.00;;;4.60;94.50;;;;;;5043868;28;20029;-96
2021/03/09 05:33:08;;;;;;;80.75;37.17;;;4.60;94.50;;;;;;5053872;28;20038;-95
2021/03/09 05:35:34;;;;;;;70.32;34.65;;;4.60;94.60;;;;;;5019665;28;20009;-96
2021/03/09 05:38:00;;;;;;;74.45;35.85;;;4.70;94.60;;;;;;5038141;28;20026;-96
2021/03/09 05:40:29;;;;;;;80.75;38.28;;;4.70;94.60;;;;;;5034156;28;20041;-96
2021/03/09 05:42:55;;;;;;;70.88;34.83;;;4.80;94.60;;;;;;5047063;28;20117;-96
2021/03/09 05:45:22;;;;;;;79.63;37.92;;;4.80;94.60;;;;;;5040468;28;20052;-96
2021/03/09 05:47:48;;;;;;;65.50;31.80;;;4.80;94.50;;;;;;5056064;28;20026;-96
2021/03/09 05:50:14;;;;;;;75.13;36.58;;;4.80;94.50;;;;;;5062319;28;20057;-96
2021/03/09 05:52:41;;;;;;;76.88;38.22;;;4.90;94.50;;;;;;5053854;28;20034;-96
2021/03/09 05:55:10;;;;;;;76.47;36.80;;;4.90;94.50;;;;;;5007295;28;20030;-95
2021/03/09 05:57:35;;;;;;;67.72;36.55;;;4.90;94.50;;;;;;5022038;28;20022;-96
2021/03/09 06:00:03;;;;;;;77.20;37.80;;;4.90;94.40;;;;;;5016169;28;20543;-94
2021/03/09 06:02:29;;;;;;;77.78;36.65;;;4.90;94.50;;;;;;5021085;28;20482;-95
2021/03/09 06:04:55;;;;;;;74.90;36.97;;;4.90;94.50;;;;;;5026757;28;20033;-95
2021/03/09 06:07:21;;;;;;;75.75;35.85;;;4.90;94.50;;;;;;5050002;28;20022;-96
2021/03/09 06:09:47;;;;;;;69.10;34.33;;;5.00;94.50;;;;;;5023938;28;20101;-95
2021/03/09 06:12:24;;;;;;;77.20;37.63;;;4.90;94.50;;;;;;5042050;28;20081;-96
2021/03/09 06:14:56;;;;;;;83.50;39.38;;;4.90;94.50;;;;;;5027807;28;20560;-95
2021/03/09 06:17:30;;;;;;;76.03;37.87;;;4.90;94.50;;;;;;5029985;28;20029;-95
2021/03/09 06:19:56;;;;;;;73.80;38.47;;;4.80;94.50;;;;;;5036146;28;20856;-95
2021/03/09 06:22:40;;;;;;;85.82;41.30;;;4.80;94.50;;;;;;5007496;28;20022;-95
2021/03/09 06:25:09;;;;;;;90.78;41.83;;;4.70;94.60;;;;;;5018380;28;20022;-94
2021/03/09 06:27:35;;;;;;;80.82;39.22;;;4.70;94.70;;;;;;5030777;28;20049;-94
2021/03/09 06:30:03;;;;;;;89.60;43.28;;;4.70;94.70;;;;;;5026758;28;20025;-94
2021/03/09 06:32:42;;;;;;;87.50;41.90;;;4.70;94.80;;;;;;5028842;28;20033;-96
2021/03/09 06:35:38;;;;;;;93.50;43.45;;;4.70;94.80;;;;;;5014245;28;20034;-95
2021/03/09 06:38:18;;;;;;;92.82;43.95;;;4.80;94.80;;;;;;5024789;28;20041;-96
2021/03/09 06:41:04;;;;;;;91.15;42.78;;;4.80;94.80;;;;;;5039284;28;20032;-94
2021/03/09 06:43:30;;;;;;;98.20;47.15;;;4.80;94.90;;;;;;5040856;28;20033;-94
2021/03/09 06:46:09;;;;;;;106.03;49.40;;;4.80;94.90;;;;;;5018302;28;20029;-95
2021/03/09 06:48:38;;;;;;;111.22;53.05;;;4.80;95.00;;;;;;5023191;28;20026;-94
2021/03/09 06:51:04;;;;;;;126.85;58.67;;;4.80;95.00;;;;;;5015366;28;20033;-95
2021/03/09 06:53:30;;;;;;;143.57;61.05;;;4.80;95.00;;;;;;5022966;28;20024;-96
2021/03/09 06:55:56;;;;;;;138.07;60.40;;;4.90;95.10;;;;;;5022061;28;20034;-94
2021/03/09 06:58:30;;;;;;;130.85;59.53;;;4.90;95.10;;;;;;5020856;28;20009;-96
2021/03/09 07:01:15;;;;;;;145.43;66.93;;;4.90;95.00;;;;;;5035494;28;20021;-94
2021/03/09 07:03:41;;;;;;;138.13;60.25;;;4.90;95.00;;;;;;5036058;28;20018;-95
2021/03/09 07:06:09;;;;;;;148.50;67.30;;;4.90;95.10;;;;;;5048465;28;20041;-95
2021/03/09 07:08:40;;;;;;;162.95;71.70;;;4.90;95.10;;;;;;5026262;28;20011;-95
2021/03/09 07:11:09;;;;;;;178.38;78.07;;;5.00;95.10;;;;;;5021927;28;20037;-96
2021/03/09 07:13:56;;;;;;;173.90;77.95;;;5.00;95.20;;;;;;5011163;28;20026;-94
2021/03/09 07:16:25;;;;;;;143.57;69.72;;;5.00;95.30;;;;;;5029845;28;20066;-96
2021/03/09 07:18:52;;;;;;;154.43;69.72;;;5.00;95.30;;;;;;5045937;28;20028;-95
2021/03/09 07:21:29;;;;;;;150.65;69.63;;;5.10;95.40;;;;;;5035587;28;20025;-96
2021/03/09 07:23:58;;;;;;;148.23;67.40;;;5.10;95.50;;;;;;5047922;28;20010;-94
2021/03/09 07:26:26;;;;;;;140.23;63.63;;;5.10;95.40;;;;;;5016396;28;20068;-96
2021/03/09 07:28:52;;;;;;;123.88;59.85;;;5.20;95.30;;;;;;5025394;28;20028;-95
2021/03/09 07:31:24;;;;;;;129.90;58.00;;;5.10;95.30;;;;;;5041644;28;20083;-95
2021/03/09 07:33:50;;;;;;;103.80;47.20;;;5.10;95.40;;;;;;5029129;28;20033;-93
2021/03/09 07:36:17;;;;;;;90.57;44.70;;;5.10;95.50;;;;;;5029521;28;20029;-93
2021/03/09 07:38:45;;;;;;;98.68;46.45;;;5.20;95.50;;;;;;5018452;28;20029;-94
2021/03/09 07:41:10;;;;;;;84.00;40.75;;;5.20;95.50;;;;;;5013715;28;20029;-94
2021/03/09 07:43:37;;;;;;;96.97;46.25;;;5.20;95.60;;;;;;5008760;28;20029;-92
2021/03/09 07:46:10;;;;;;;78.75;37.58;;;5.30;95.60;;;;;;5025015;28;20484;-94
2021/03/09 07:48:36;;;;;;;79.13;37.58;;;5.30;95.60;;;;;;5022080;28;20026;-93
2021/03/09 07:51:05;;;;;;;65.78;33.03;;;5.40;95.70;;;;;;5009203;28;20030;-95
2021/03/09 07:53:31;;;;;;;73.07;35.55;;;5.50;95.70;;;;;;5022602;28;20034;-95
2021/03/09 07:56:13;;;;;;;69.03;34.45;;;5.50;95.70;;;;;;5014235;28;20374;-94
2021/03/09 07:58:39;;;;;;;72.67;34.00;;;5.70;95.70;;;;;;5025296;28;20082;-95
2021/03/09 08:01:07;;;;;;;63.58;32.08;;;5.70;95.70;;;;;;5014507;28;20280;-95
2021/03/09 08:03:37;;;;;;;64.18;33.30;;;5.80;95.70;;;;;;5039592;28;20018;-95
2021/03/09 08:06:14;;;;;;;68.85;32.83;;;5.90;95.60;;;;;;5003738;28;20030;-96
2021/03/09 08:08:52;;;;;;;65.32;31.80;;;5.90;95.50;;;;;;5038602;28;20033;-94
2021/03/09 08:11:22;;;;;;;61.28;30.52;;;5.90;95.50;;;;;;5027625;28;20117;-94
2021/03/09 08:14:11;;;;;;;63.35;30.90;;;5.90;95.40;;;;;;5025915;28;20106;-94
2021/03/09 08:16:44;;;;;;;60.50;27.98;;;6.00;95.40;;;;;;5025530;28;20048;-94
2021/03/09 08:19:11;;;;;;;55.38;27.40;;;6.00;95.40;;;;;;5026629;28;20037;-94
2021/03/09 08:21:57;;;;;;;56.30;25.65;;;6.00;95.40;;;;;;5039006;28;20022;-95
2021/03/09 08:24:48;;;;;;;45.70;24.60;;;6.00;95.30;;;;;;5057169;28;20041;-96
2021/03/09 08:27:29;;;;;;;43.13;21.67;;;6.00;95.30;;;;;;5059328;28;20055;-94
2021/03/09 08:30:26;;;;;;;46.40;21.52;;;6.00;95.30;;;;;;5049539;28;20021;-94
2021/03/09 08:32:52;;;;;;;34.97;17.35;;;6.00;95.30;;;;;;5025029;28;20124;-95
2021/03/09 08:35:18;;;;;;;34.90;16.05;;;6.00;95.30;;;;;;5046017;28;20040;-93
2021/03/09 08:37:45;;;;;;;31.67;12.95;;;6.00;95.30;;;;;;5032782;28;20220;-95
2021/03/09 08:40:22;;;;;;;22.20;11.63;;;6.00;95.30;;;;;;5046992;28;20032;-95
2021/03/09 08:43:02;;;;;;;25.48;11.30;;;6.10;95.30;;;;;;5046476;28;20022;-94
2021/03/09 08:45:55;;;;;;;19.85;8.65;;;6.10;95.30;;;;;;5024467;28;20107;-94
2021/03/09 08:48:46;;;;;;;19.77;8.75;;;6.10;95.20;;;;;;5025840;28;20036;-93
2021/03/09 08:51:41;;;;;;;15.43;8.25;;;6.10;95.20;;;;;;5039705;28;20082;-94
2021/03/09 08:54:24;;;;;;;12.98;6.82;;;6.20;95.30;;;;;;5032370;28;20101;-94
2021/03/09 08:56:49;;;;;;;;;;;6.30;95.10;;;;;;5038076;28;20022;-94
2021/03/09 08:59:20;;;;;;;15.00;5.70;;;6.20;95.10;;;;;;5043423;28;19912;-95
2021/03/09 09:01:46;;;;;;;13.00;5.78;;;6.30;95.00;;;;;;5042902;28;20025;-94
2021/03/09 09:04:16;;;;;;;8.95;5.18;;;6.40;95.00;;;;;;5035503;28;20038;-95
2021/03/09 09:06:41;;;;;;;13.07;5.43;;;6.40;94.90;;;;;;5023558;28;20044;-93
2021/03/09 09:09:07;;;;;;;8.13;5.07;;;6.40;94.80;;;;;;5040153;28;20481;-94
2021/03/09 09:11:32;;;;;;;11.13;5.03;;;6.40;94.70;;;;;;5034767;28;20504;-95
2021/03/09 09:14:12;;;;;;;12.40;5.57;;;6.40;94.60;;;;;;5048055;28;20037;-94
2021/03/09 09:16:37;;;;;;;11.82;4.72;;;6.40;94.60;;;;;;5027223;28;20029;-93
2021/03/09 09:19:03;;;;;;;10.60;4.88;;;6.40;94.60;;;;;;5046195;28;20370;-93
2021/03/09 09:21:29;;;;;;;9.32;4.38;;;6.40;94.60;;;;;;5025287;28;20030;-93
2021/03/09 09:23:54;;;;;;;7.32;4.32;;;6.50;94.60;;;;;;5024452;28;20018;-93
2021/03/09 09:26:20;;;;;;;8.32;3.95;;;6.50;94.50;;;;;;5005807;28;20049;-93
2021/03/09 09:28:46;;;;;;;7.90;4.00;;;6.60;94.40;;;;;;5021585;28;20056;-94
2021/03/09 09:31:23;;;;;;;7.18;3.92;;;6.70;94.40;;;;;;5028052;28;20046;-93
2021/03/09 09:33:51;;;;;;;6.00;3.35;;;6.80;94.40;;;;;;5025831;28;20022;-96
2021/03/09 09:36:23;;;;;;;8.55;3.00;;;6.90;94.30;;;;;;5050252;28;20025;-95
2021/03/09 09:38:50;;;;;;;4.72;2.35;;;7.00;94.00;;;;;;5048600;28;20076;-95
2021/03/09 09:41:21;;;;;;;4.93;2.63;;;7.10;94.00;;;;;;5031204;28;20045;-95
2021/03/09 09:43:47;;;;;;;4.90;2.42;;;7.10;93.70;;;;;;4993579;28;20045;-96
2021/03/09 09:46:23;;;;;;;4.47;2.20;;;7.20;93.60;;;;;;5004673;28;20061;-96
2021/03/09 09:48:49;;;;;;;7.53;2.78;;;7.20;93.30;;;;;;5026517;28;20021;-95
2021/03/09 09:51:20;;;;;;;4.93;3.35;;;7.20;93.30;;;;;;5050509;28;20025;-95
2021/03/09 09:53:47;;;;;;;5.85;2.92;;;7.20;93.30;;;;;;5015464;28;20029;-95
2021/03/09 09:56:17;;;;;;;6.82;3.00;;;7.20;93.20;;;;;;5016623;28;20053;-94
2021/03/09 09:58:49;;;;;;;6.95;3.70;;;7.20;93.20;;;;;;5040494;28;20026;-95
2021/03/09 10:01:20;;;;;;;5.00;3.28;;;7.30;93.20;;;;;;5025978;28;20026;-95
2021/03/09 10:04:05;;;;;;;4.40;3.15;;;7.40;93.50;;;;;;5028523;28;20164;-95
2021/03/09 10:06:47;;;;;;;6.90;3.47;;;7.50;93.20;;;;;;5027503;28;20053;-95
2021/03/09 10:09:24;;;;;;;5.50;2.80;;;7.70;93.10;;;;;;5018198;28;20022;-93
2021/03/09 10:11:51;;;;;;;5.60;1.95;;;7.80;92.60;;;;;;5017740;28;20167;-94
2021/03/09 10:14:18;;;;;;;3.72;2.03;;;7.80;92.30;;;;;;5006704;28;20029;-95
2021/03/09 10:16:44;;;;;;;4.63;1.98;;;7.70;92.10;;;;;;5037499;28;20101;-95
2021/03/09 10:19:17;;;;;;;5.03;1.92;;;7.70;91.80;;;;;;5038912;28;20051;-94
2021/03/09 10:21:48;;;;;;;7.55;2.38;;;7.70;91.50;;;;;;5021197;28;20033;-95
2021/03/09 10:24:31;;;;;;;4.28;2.30;;;7.70;91.70;;;;;;5008435;28;20057;-96
2021/03/09 10:26:58;;;;;;;4.13;2.60;;;7.80;91.90;;;;;;5031672;28;20036;-96
2021/03/09 10:29:31;;;;;;;4.15;2.95;;;8.00;92.00;;;;;;5030997;28;20029;-95
2021/03/09 10:32:02;;;;;;;3.22;2.30;;;8.20;91.50;;;;;;5051205;28;20041;-95
2021/03/09 10:34:41;;;;;;;4.25;1.98;;;8.30;90.80;;;;;;5037408;28;20040;-94
2021/03/09 10:37:14;;;;;;;9.73;2.80;;;8.20;90.50;;;;;;5027993;28;20017;-95
2021/03/09 10:39:53;;;;;;;;;;;8.10;90.50;;;;;;5028845;28;20010;-94
2021/03/09 10:42:39;;;;;;;4.25;3.28;;;8.00;90.60;;;;;;5041885;28;19916;-95
2021/03/09 10:45:32;;;;;;;6.10;3.65;;;8.00;90.40;;;;;;5036982;28;20045;-96
2021/03/09 10:48:02;;;;;;;4.07;3.13;;;7.90;90.10;;;;;;5031794;28;20025;-96
2021/03/09 10:50:42;;;;;;;5.28;3.45;;;7.80;90.20;;;;;;5038733;28;20033;-94
2021/03/09 10:53:09;;;;;;;5.05;3.55;;;7.80;90.30;;;;;;5039034;28;20505;-94
2021/03/09 10:55:34;;;;;;;4.65;3.35;;;7.80;90.40;;;;;;5042138;28;20089;-95
2021/03/09 10:58:00;;;;;;;7.53;4.45;;;7.80;90.40;;;;;;5037005;28;20029;-94
2021/03/09 11:00:27;;;;;;;5.90;4.28;;;7.80;90.50;;;;;;5045917;28;20053;-95
2021/03/09 11:02:53;;;;;;;7.90;3.33;;;7.90;90.10;;;;;;5039621;28;20026;-96
2021/03/09 11:05:24;;;;;;;3.38;2.33;;;7.90;90.00;;;;;;5044844;28;20045;-96
2021/03/09 11:07:49;;;;;;;4.07;1.90;;;7.90;89.40;;;;;;5033796;28;20089;-95
2021/03/09 11:10:16;;;;;;;2.83;1.77;;;7.90;89.00;;;;;;5040564;28;20029;-96
2021/03/09 11:12:42;;;;;;;3.95;1.38;;;7.90;88.90;;;;;;5017783;28;20022;-95
2021/03/09 11:15:08;;;;;;;3.35;1.23;;;7.90;88.90;;;;;;5045224;28;20036;-95
2021/03/09 11:17:34;;;;;;;3.85;1.60;;;7.90;88.80;;;;;;5031849;28;20025;-95
2021/03/09 11:20:00;;;;;;;2.90;1.50;;;7.90;88.80;;;;;;5028138;28;20031;-96
2021/03/09 11:22:26;;;;;;;2.13;1.10;;;8.00;88.80;;;;;;5032831;28;20056;-93
2021/03/09 11:24:51;;;;;;;3.10;1.50;;;7.90;88.40;;;;;;5028534;28;20072;-96
2021/03/09 11:27:17;;;;;;;3.30;1.10;;;8.00;88.30;;;;;;5031410;28;20021;-96
2021/03/09 11:29:43;;;;;;;4.15;1.67;;;7.90;88.40;;;;;;5029960;28;20466;-96
2021/03/09 11:32:08;;;;;;;3.03;1.40;;;7.80;88.10;;;;;;5023870;28;20049;-96
2021/03/09 11:34:34;;;;;;;2.42;2.13;;;7.80;88.20;;;;;;5021300;28;20112;-96
2021/03/09 11:37:00;;;;;;;3.30;1.98;;;7.80;88.20;;;;;;5050095;28;20092;-95
2021/03/09 11:39:26;;;;;;;4.03;2.33;;;7.80;88.40;;;;;;5047390;28;20052;-93
2021/03/09 11:41:52;;;;;;;4.18;2.50;;;7.80;88.40;;;;;;5023690;28;20036;-96
2021/03/09 11:44:19;;;;;;;3.90;2.42;;;7.80;88.20;;;;;;5045467;28;20081;-94
2021/03/09 11:46:45;;;;;;;3.15;2.15;;;7.90;88.40;;;;;;5018737;28;20034;-95
2021/03/09 11:49:10;;;;;;;5.10;2.13;;;7.90;87.80;;;;;;5013076;28;20026;-96
2021/03/09 11:51:36;;;;;;;3.80;1.88;;;8.00;87.90;;;;;;5014750;28;20084;-95
2021/03/09 11:54:02;;;;;;;2.40;1.15;;;8.10;87.60;;;;;;5027238;28;20100;-93
2021/03/09 11:56:28;;;;;;;2.70;1.25;;;8.10;87.40;;;;;;5025382;28;20029;-94
2021/03/09 11:58:54;;;;;;;2.55;1.27;;;8.20;87.00;;;;;;5024924;28;20021;-93
2021/03/09 12:01:20;;;;;;;2.15;1.25;;;8.20;86.20;;;;;;5020557;28;20030;-94
2021/03/09 12:03:46;;;;;;;1.80;1.05;;;8.20;85.90;;;;;;5020918;28;20021;-93
2021/03/09 12:06:15;;;;;;;4.45;1.55;;;8.30;85.70;;;;;;5029218;28;20037;-95
2021/03/09 12:08:40;;;;;;;2.75;0.93;;;8.30;84.90;;;;;;5032928;28;20054;-94
2021/03/09 12:11:07;;;;;;;2.58;0.80;;;8.30;85.10;;;;;;5023683;28;20029;-94
2021/03/09 12:13:34;;;;;;;1.15;0.40;;;8.40;84.60;;;;;;5018263;28;20026;-94
2021/03/09 12:16:00;;;;;;;2.60;0.70;;;8.40;84.10;;;;;;5027825;28;20045;-95
2021/03/09 12:18:25;;;;;;;1.08;0.52;;;8.50;83.90;;;;;;5011406;28;20018;-95
2021/03/09 12:20:51;;;;;;;1.55;0.50;;;8.50;84.00;;;;;;5010867;28;20037;-95
2021/03/09 12:23:17;;;;;;;3.00;1.02;;;8.60;83.80;;;;;;5019541;28;20477;-94
2021/03/09 12:25:43;;;;;;;4.38;0.60;;;8.70;83.30;;;;;;5039402;28;20045;-94
2021/03/09 12:28:08;;;;;;;1.20;0.60;;;8.70;82.80;;;;;;5020438;28;20026;-94
2021/03/09 12:30:34;;;;;;;1.35;0.40;;;8.70;82.40;;;;;;5003474;28;20053;-92
2021/03/09 12:32:59;;;;;;;2.38;0.40;;;8.70;82.40;;;;;;5009973;28;20022;-94
2021/03/09 12:35:26;;;;;;;0.85;0.40;;;8.60;81.50;;;;;;5022346;28;20034;-94
2021/03/09 12:37:51;;;;;;;2.20;0.50;;;8.40;81.50;;;;;;5032260;28;20022;-94
2021/03/09 12:40:17;;;;;;;2.22;0.40;;;8.40;81.50;;;;;;5007348;28;20108;-94
2021/03/09 12:42:42;;;;;;;1.17;0.40;;;8.40;81.70;;;;;;5025151;28;20028;-93
2021/03/09 12:45:09;;;;;;;1.65;0.50;;;8.30;81.50;;;;;;5018125;28;20034;-93
2021/03/09 12:47:34;;;;;;;1.42;0.60;;;8.30;81.80;;;;;;5030859;28;20022;-94
2021/03/09 12:50:01;;;;;;;1.88;0.60;;;8.20;81.90;;;;;;5013238;28;20101;-94
2021/03/09 12:52:26;;;;;;;4.80;1.42;;;8.10;82.00;;;;;;5017316;28;20025;-93
2021/03/09 12:54:52;;;;;;;2.22;0.98;;;8.00;82.30;;;;;;5017035;28;20048;-94
2021/03/09 12:57:18;;;;;;;2.08;0.68;;;8.00;82.90;;;;;;5017370;28;20057;-95
2021/03/09 12:59:43;;;;;;;1.30;0.80;;;7.90;83.50;;;;;;5014390;28;20034;-95
2021/03/09 13:02:09;;;;;;;2.33;1.10;;;7.80;84.30;;;;;;5016688;28;20021;-93